createdAt,value
2023-11-26T00:01:24.862Z,1.30
2023-11-26T00:06:23.183Z,1.47
2023-11-26T00:11:21.612Z,1.17
2023-11-26T00:16:20.431Z,1.20
2023-11-26T00:21:20.059Z,1.23
2023-11-26T00:26:18.304Z,2.00
2023-11-26T00:31:21.971Z,1.40
2023-11-26T00:36:23.508Z,1.10
2023-11-26T00:41:21.873Z,1.87
2023-11-26T00:46:20.145Z,1.10
2023-11-26T00:51:23.564Z,2.07
2023-11-26T00:56:22.572Z,1.30
2023-11-26T01:01:21.137Z,1.60
2023-11-26T01:06:19.572Z,1.53
2023-11-26T01:11:19.234Z,2.13
2023-11-26T01:16:17.661Z,1.63
2023-11-26T01:21:15.936Z,1.20
2023-11-26T01:26:14.276Z,1.30
2023-11-26T01:31:14.161Z,1.60
2023-11-26T01:36:12.725Z,1.30
2023-11-26T01:41:11.027Z,1.30
2023-11-26T01:46:11.883Z,1.13
2023-11-26T01:51:14.261Z,1.30
2023-11-26T01:56:13.564Z,1.33
2023-11-26T02:01:12.889Z,1.10
2023-11-26T02:06:13.583Z,1.40
2023-11-26T02:11:12.172Z,1.10
2023-11-26T02:16:10.576Z,1.27
2023-11-26T02:21:09.615Z,1.60
2023-11-26T02:26:10.794Z,1.50
2023-11-26T02:31:11.197Z,1.33
2023-11-26T02:36:09.687Z,1.37
2023-11-26T02:41:11.063Z,0.97
2023-11-26T02:46:09.741Z,0.87
2023-11-26T02:51:08.159Z,1.03
2023-11-26T02:56:07.426Z,1.33
2023-11-26T03:01:07.608Z,1.37
2023-11-26T03:06:06.964Z,1.37
2023-11-26T03:11:22.593Z,1.30
2023-11-26T03:16:23.361Z,1.43
2023-11-26T03:21:28.239Z,1.57
2023-11-26T03:26:28.378Z,1.57
2023-11-26T03:31:28.805Z,1.97
2023-11-26T03:36:27.222Z,1.90
2023-11-26T03:41:25.454Z,2.13
2023-11-26T03:46:24.111Z,2.00
2023-11-26T03:51:24.734Z,1.80
2023-11-26T03:56:22.988Z,1.77
2023-11-26T04:01:21.703Z,1.90
2023-11-26T04:06:20.088Z,1.80
2023-11-26T04:11:22.049Z,2.30
2023-11-26T04:16:20.966Z,2.10
2023-11-26T04:21:19.311Z,1.60
2023-11-26T04:26:18.913Z,2.53
2023-11-26T04:31:17.708Z,2.10
2023-11-26T04:36:15.994Z,2.20
2023-11-26T04:41:14.266Z,2.50
2023-11-26T04:46:16.135Z,2.20
2023-11-26T04:51:14.402Z,1.80
2023-11-26T04:56:15.087Z,2.20
2023-11-26T05:01:18.437Z,1.90
2023-11-26T05:06:16.750Z,2.23
2023-11-26T05:11:15.041Z,2.10
2023-11-26T05:16:13.325Z,1.57
2023-11-26T05:21:13.809Z,2.13
2023-11-26T05:26:15.324Z,1.50
2023-11-26T05:31:16.252Z,2.20
2023-11-26T05:36:15.991Z,2.00
2023-11-26T05:41:14.276Z,1.60
2023-11-26T05:46:12.641Z,1.77
2023-11-26T05:51:11.273Z,2.03
2023-11-26T05:56:10.861Z,2.00
2023-11-26T06:01:09.193Z,2.00
2023-11-26T06:06:08.181Z,2.00
2023-11-26T06:11:06.972Z,2.50
2023-11-26T06:16:07.443Z,1.80
2023-11-26T06:21:05.789Z,1.70
2023-11-26T06:26:04.008Z,2.50
2023-11-26T06:31:02.276Z,2.87
2023-11-26T06:36:02.756Z,2.73
2023-11-26T06:41:02.940Z,2.97
2023-11-26T06:46:01.209Z,2.80
2023-11-26T06:50:59.450Z,2.60
2023-11-26T06:55:59.038Z,3.00
2023-11-26T07:00:57.305Z,2.70
2023-11-26T07:05:55.566Z,2.63
2023-11-26T07:10:53.808Z,2.50
2023-11-26T07:15:53.969Z,2.20
2023-11-26T07:20:52.321Z,2.10
2023-11-26T07:25:50.514Z,2.97
2023-11-26T07:30:49.002Z,2.67
2023-11-26T07:35:49.179Z,2.80
2023-11-26T07:40:47.560Z,2.60
2023-11-26T07:45:46.253Z,2.40
2023-11-26T07:50:45.253Z,4.53
2023-11-26T07:55:44.834Z,3.50
2023-11-26T08:00:43.106Z,2.70
2023-11-26T08:05:41.346Z,2.33
2023-11-26T08:10:39.608Z,2.83
2023-11-26T08:15:40.917Z,3.00
2023-11-26T08:20:39.396Z,2.20
2023-11-26T08:25:40.005Z,3.20
2023-11-26T08:30:43.907Z,2.90
2023-11-26T08:35:43.132Z,2.40
2023-11-26T08:40:42.180Z,2.40
2023-11-26T08:45:42.485Z,2.50
2023-11-26T08:50:41.472Z,2.33
2023-11-26T08:55:39.936Z,2.23
2023-11-26T09:00:38.315Z,2.00
2023-11-26T09:05:38.001Z,2.37
2023-11-26T09:10:37.038Z,2.17
2023-11-26T09:15:39.977Z,1.80
2023-11-26T09:20:39.667Z,1.90
2023-11-26T09:25:38.379Z,1.77
2023-11-26T09:30:37.352Z,1.43
2023-11-26T09:35:35.693Z,1.60
2023-11-26T09:40:36.372Z,1.77
2023-11-26T09:45:34.861Z,1.20
2023-11-26T09:50:33.248Z,1.30
2023-11-26T09:55:40.083Z,1.50
2023-11-26T10:00:39.102Z,1.27
2023-11-26T10:05:37.530Z,1.50
2023-11-26T10:10:49.424Z,1.50
2023-11-26T10:15:49.909Z,1.27
2023-11-26T10:20:54.406Z,1.67
2023-11-26T10:25:52.706Z,1.60
2023-11-26T10:30:52.404Z,1.83
2023-11-26T10:35:55.073Z,1.47
2023-11-26T10:40:58.513Z,1.37
2023-11-26T10:46:00.460Z,1.70
2023-11-26T10:51:13.205Z,1.97
2023-11-26T10:56:22.486Z,1.73
2023-11-26T11:01:22.600Z,1.03
2023-11-26T11:06:24.709Z,1.40
2023-11-26T11:11:32.760Z,1.50
2023-11-26T11:16:32.867Z,1.50
2023-11-26T11:21:31.260Z,1.43
2023-11-26T11:26:30.909Z,1.63
2023-11-26T11:32:05.222Z,1.63
2023-11-26T11:37:05.374Z,1.37
2023-11-26T11:42:15.084Z,1.27
2023-11-26T11:47:15.014Z,1.50
2023-11-26T11:52:15.700Z,1.30
2023-11-26T11:57:16.521Z,1.43
2023-11-26T12:02:14.849Z,2.07
2023-11-26T12:07:14.760Z,1.13
2023-11-26T12:12:18.663Z,1.03
2023-11-26T12:17:17.657Z,1.00
2023-11-26T12:22:18.393Z,1.10
2023-11-26T12:27:24.238Z,1.50
2023-11-26T12:32:28.036Z,1.37
2023-11-26T12:37:27.909Z,1.30
2023-11-26T12:42:27.876Z,1.00
2023-11-26T12:47:27.163Z,1.27
2023-11-26T12:52:25.643Z,1.23
2023-11-26T12:57:26.185Z,1.43
2023-11-26T13:02:24.566Z,1.70
2023-11-26T13:07:23.511Z,1.30
2023-11-26T13:12:21.951Z,1.53
2023-11-26T13:17:21.628Z,1.53
2023-11-26T13:22:19.967Z,1.50
2023-11-26T13:27:18.469Z,1.43
2023-11-26T13:32:16.790Z,1.70
2023-11-26T13:37:17.695Z,2.37
2023-11-26T13:42:16.041Z,1.53
2023-11-26T13:47:14.769Z,1.60
2023-11-26T13:52:13.116Z,1.50
2023-11-26T13:57:15.013Z,1.40
2023-11-26T14:02:15.332Z,2.47
2023-11-26T14:07:13.660Z,2.00
2023-11-26T14:12:13.378Z,2.07
2023-11-26T14:17:12.231Z,2.20
2023-11-26T14:22:11.448Z,2.50
2023-11-26T14:27:09.987Z,2.10
2023-11-26T14:32:09.792Z,1.90
2023-11-26T14:37:09.153Z,2.10
2023-11-26T14:42:09.413Z,1.80
2023-11-26T14:47:10.748Z,2.20
2023-11-26T14:52:10.762Z,2.50
2023-11-26T14:57:09.151Z,2.07
2023-11-26T15:02:10.698Z,2.40
2023-11-26T15:07:09.455Z,2.30
2023-11-26T15:12:08.262Z,2.50
2023-11-26T15:17:07.593Z,2.77
2023-11-26T15:22:08.495Z,2.20
2023-11-26T15:27:07.400Z,2.80
2023-11-26T15:32:09.224Z,2.43
2023-11-26T15:37:12.683Z,4.63
2023-11-26T15:42:11.231Z,3.50
2023-11-26T15:47:09.804Z,4.67
2023-11-26T15:52:08.346Z,4.10
2023-11-26T15:57:09.836Z,4.17
2023-11-26T16:02:08.314Z,3.60
2023-11-26T16:07:09.037Z,3.90
2023-11-26T16:12:11.611Z,4.07
2023-11-26T16:17:21.662Z,4.63
2023-11-26T16:22:28.081Z,5.13
2023-11-26T16:27:27.761Z,5.50
2023-11-26T16:32:26.080Z,6.10
2023-11-26T16:37:24.974Z,7.17
2023-11-26T16:42:23.277Z,5.90
2023-11-26T16:47:22.910Z,6.40
2023-11-26T16:52:21.190Z,7.50
2023-11-26T16:57:19.502Z,8.90
2023-11-26T17:02:18.406Z,10.83
2023-11-26T17:07:18.386Z,9.40
2023-11-26T17:12:16.510Z,8.70
2023-11-26T17:17:14.942Z,7.80
2023-11-26T17:22:14.920Z,9.33
2023-11-26T17:27:15.327Z,9.97
2023-11-26T17:32:13.676Z,9.23
2023-11-26T17:37:11.981Z,10.80
2023-11-26T17:42:10.470Z,11.73
2023-11-26T17:47:13.183Z,10.80
2023-11-26T17:52:11.799Z,9.50
2023-11-26T17:57:11.288Z,16.40
2023-11-26T18:02:11.016Z,12.77
2023-11-26T18:07:09.765Z,13.30
2023-11-26T18:12:08.956Z,10.80
2023-11-26T18:17:07.444Z,11.13
2023-11-26T18:22:07.302Z,10.80
2023-11-26T18:27:06.810Z,10.33
2023-11-26T18:32:05.635Z,10.20
2023-11-26T18:37:04.204Z,9.33
2023-11-26T18:42:03.894Z,10.03
2023-11-26T18:47:02.488Z,9.50
2023-11-26T18:52:00.907Z,11.10
2023-11-26T18:56:59.230Z,8.17
2023-11-26T19:01:59.174Z,8.07
2023-11-26T19:06:57.532Z,8.83
2023-11-26T19:11:55.971Z,8.00
2023-11-26T19:16:54.419Z,8.70
2023-11-26T19:21:54.385Z,6.70
2023-11-26T19:26:52.862Z,9.50
2023-11-26T19:31:50.994Z,8.43
2023-11-26T19:36:49.382Z,7.73
2023-11-26T19:41:49.093Z,7.90
2023-11-26T19:46:47.463Z,9.00
2023-11-26T19:51:47.160Z,7.37
2023-11-26T19:56:45.549Z,8.70
2023-11-26T20:01:46.483Z,8.07
2023-11-26T20:06:47.304Z,8.67
2023-11-26T20:11:47.445Z,8.53
2023-11-26T20:16:47.132Z,12.93
2023-11-26T20:21:45.289Z,14.37
2023-11-26T20:26:43.622Z,14.00
2023-11-26T20:31:43.008Z,13.57
2023-11-26T20:36:42.776Z,14.20
2023-11-26T20:41:41.226Z,16.10
2023-11-26T20:46:39.407Z,13.80
2023-11-26T20:51:37.869Z,15.57
2023-11-26T20:56:37.564Z,16.57
2023-11-26T21:01:36.274Z,17.00
2023-11-26T21:06:34.730Z,16.50
2023-11-26T21:11:33.147Z,15.30
2023-11-26T21:16:33.250Z,16.07
2023-11-26T21:21:31.811Z,16.47
2023-11-26T21:26:30.164Z,15.47
2023-11-26T21:31:28.612Z,17.23
2023-11-26T21:36:28.275Z,16.67
2023-11-26T21:41:26.846Z,16.40
2023-11-26T21:46:35.464Z,17.50
2023-11-26T21:51:40.982Z,15.90
2023-11-26T21:56:39.186Z,16.20
2023-11-26T22:01:37.794Z,16.27
2023-11-26T22:06:36.254Z,15.77
2023-11-26T22:11:35.956Z,16.23
2023-11-26T22:16:34.298Z,15.13
2023-11-26T22:21:32.636Z,15.53
2023-11-26T22:26:30.946Z,17.27
2023-11-26T22:31:30.674Z,15.70
2023-11-26T22:36:31.311Z,14.27
2023-11-26T22:41:32.255Z,13.63
2023-11-26T22:46:32.036Z,15.10
2023-11-26T22:51:32.477Z,12.90
2023-11-26T22:56:31.019Z,13.03
2023-11-26T23:01:30.209Z,13.63
2023-11-26T23:06:30.547Z,10.57
2023-11-26T23:11:28.859Z,9.50
2023-11-26T23:16:27.115Z,10.77
2023-11-26T23:21:25.955Z,11.20
2023-11-26T23:26:25.641Z,10.37
2023-11-26T23:31:24.144Z,9.50
2023-11-26T23:36:22.785Z,9.87
2023-11-26T23:41:21.150Z,11.13
2023-11-26T23:46:21.034Z,9.27
2023-11-26T23:51:19.381Z,9.97
2023-11-26T23:56:17.724Z,9.50
